sensor_id;sensor_type;location;lat;lon;timestamp;temperature;humidity
1594;DHT22;790;47.000;16.084;2023-05-07T00:02:10;14.40;99.90
1594;DHT22;790;47.000;16.084;2023-05-07T00:04:39;14.50;99.90
1594;DHT22;790;47.000;16.084;2023-05-07T00:07:06;14.50;99.90
1594;DHT22;790;47.000;16.084;2023-05-07T00:09:33;14.50;99.90
1594;DHT22;790;47.000;16.084;2023-05-07T00:12:00;14.50;99.90
1594;DHT22;790;47.000;16.084;2023-05-07T00:14:28;14.40;99.90
1594;DHT22;790;47.000;16.084;2023-05-07T00:16:57;14.40;99.90
1594;DHT22;790;47.000;16.084;2023-05-07T00:19:24;14.30;99.90
1594;DHT22;790;47.000;16.084;2023-05-07T00:21:51;14.30;99.90
1594;DHT22;790;47.000;16.084;2023-05-07T00:24:19;14.30;99.90
1594;DHT22;790;47.000;16.084;2023-05-07T00:26:47;14.30;99.90
1594;DHT22;790;47.000;16.084;2023-05-07T00:29:15;14.30;99.90
1594;DHT22;790;47.000;16.084;2023-05-07T00:31:42;14.30;99.90
1594;DHT22;790;47.000;16.084;2023-05-07T00:34:14;14.40;99.90
1594;DHT22;790;47.000;16.084;2023-05-07T00:36:41;14.50;99.90
1594;DHT22;790;47.000;16.084;2023-05-07T00:39:09;14.60;99.90
1594;DHT22;790;47.000;16.084;2023-05-07T00:41:37;14.70;99.90
1594;DHT22;790;47.000;16.084;2023-05-07T00:44:04;14.70;99.90
1594;DHT22;790;47.000;16.084;2023-05-07T00:46:32;14.70;99.90
1594;DHT22;790;47.000;16.084;2023-05-07T00:49:00;14.60;99.90
1594;DHT22;790;47.000;16.084;2023-05-07T00:51:30;14.50;99.90
1594;DHT22;790;47.000;16.084;2023-05-07T00:53:57;14.50;99.90
1594;DHT22;790;47.000;16.084;2023-05-07T00:56:25;14.50;99.90
1594;DHT22;790;47.000;16.084;2023-05-07T00:58:53;14.40;99.90
1594;DHT22;790;47.000;16.084;2023-05-07T01:01:21;14.40;99.90
1594;DHT22;790;47.000;16.084;2023-05-07T01:03:48;14.50;99.90
1594;DHT22;790;47.000;16.084;2023-05-07T01:06:16;14.40;99.90
1594;DHT22;790;47.000;16.084;2023-05-07T01:08:45;14.40;99.90
1594;DHT22;790;47.000;16.084;2023-05-07T01:11:13;14.40;99.90
1594;DHT22;790;47.000;16.084;2023-05-07T01:13:42;14.30;99.90
1594;DHT22;790;47.000;16.084;2023-05-07T01:16:10;14.30;99.90
1594;DHT22;790;47.000;16.084;2023-05-07T01:18:37;14.30;99.90
1594;DHT22;790;47.000;16.084;2023-05-07T01:21:05;14.40;99.90
1594;DHT22;790;47.000;16.084;2023-05-07T01:23:35;14.40;99.90
1594;DHT22;790;47.000;16.084;2023-05-07T01:26:03;14.40;99.90
1594;DHT22;790;47.000;16.084;2023-05-07T01:28:30;14.30;99.90
1594;DHT22;790;47.000;16.084;2023-05-07T01:31:00;14.40;99.90
1594;DHT22;790;47.000;16.084;2023-05-07T01:33:31;14.30;99.90
1594;DHT22;790;47.000;16.084;2023-05-07T01:35:59;14.40;99.90
1594;DHT22;790;47.000;16.084;2023-05-07T01:38:29;14.40;99.90
1594;DHT22;790;47.000;16.084;2023-05-07T01:40:58;14.40;99.90
1594;DHT22;790;47.000;16.084;2023-05-07T01:43:26;14.30;99.90
1594;DHT22;790;47.000;16.084;2023-05-07T01:45:53;14.20;99.90
1594;DHT22;790;47.000;16.084;2023-05-07T01:48:22;14.20;99.90
1594;DHT22;790;47.000;16.084;2023-05-07T01:50:52;14.20;99.90
1594;DHT22;790;47.000;16.084;2023-05-07T01:53:19;14.20;99.90
1594;DHT22;790;47.000;16.084;2023-05-07T01:55:46;14.30;99.90
1594;DHT22;790;47.000;16.084;2023-05-07T01:58:15;14.40;99.90
1594;DHT22;790;47.000;16.084;2023-05-07T02:00:42;14.40;99.90
1594;DHT22;790;47.000;16.084;2023-05-07T02:03:10;14.30;99.90
1594;DHT22;790;47.000;16.084;2023-05-07T02:05:37;14.40;99.90
1594;DHT22;790;47.000;16.084;2023-05-07T02:08:05;14.40;99.90
1594;DHT22;790;47.000;16.084;2023-05-07T02:10:32;14.30;99.90
1594;DHT22;790;47.000;16.084;2023-05-07T02:13:02;14.30;99.90
1594;DHT22;790;47.000;16.084;2023-05-07T02:15:30;14.30;99.90
1594;DHT22;790;47.000;16.084;2023-05-07T02:17:59;14.10;99.90
1594;DHT22;790;47.000;16.084;2023-05-07T02:20:27;14.10;99.90
1594;DHT22;790;47.000;16.084;2023-05-07T02:22:54;14.20;99.90
1594;DHT22;790;47.000;16.084;2023-05-07T02:25:21;14.20;99.90
1594;DHT22;790;47.000;16.084;2023-05-07T02:27:49;14.20;99.90
1594;DHT22;790;47.000;16.084;2023-05-07T02:30:18;14.10;99.90
1594;DHT22;790;47.000;16.084;2023-05-07T02:32:52;14.10;99.90
1594;DHT22;790;47.000;16.084;2023-05-07T02:35:19;14.10;99.90
1594;DHT22;790;47.000;16.084;2023-05-07T02:37:46;14.10;99.90
1594;DHT22;790;47.000;16.084;2023-05-07T02:40:14;14.10;99.90
1594;DHT22;790;47.000;16.084;2023-05-07T02:42:41;14.10;99.90
1594;DHT22;790;47.000;16.084;2023-05-07T02:45:09;14.00;99.90
1594;DHT22;790;47.000;16.084;2023-05-07T02:47:38;14.00;99.90
1594;DHT22;790;47.000;16.084;2023-05-07T02:50:10;14.10;99.90
1594;DHT22;790;47.000;16.084;2023-05-07T02:52:37;14.10;99.90
1594;DHT22;790;47.000;16.084;2023-05-07T02:55:05;14.20;99.90
1594;DHT22;790;47.000;16.084;2023-05-07T02:57:33;14.10;99.90
1594;DHT22;790;47.000;16.084;2023-05-07T03:00:10;14.10;99.90
1594;DHT22;790;47.000;16.084;2023-05-07T03:02:51;14.10;99.90
1594;DHT22;790;47.000;16.084;2023-05-07T03:05:20;14.00;99.90
1594;DHT22;790;47.000;16.084;2023-05-07T03:07:47;14.00;99.90
1594;DHT22;790;47.000;16.084;2023-05-07T03:10:18;14.00;99.90
1594;DHT22;790;47.000;16.084;2023-05-07T03:12:49;13.90;99.90
1594;DHT22;790;47.000;16.084;2023-05-07T03:15:17;13.90;99.90
1594;DHT22;790;47.000;16.084;2023-05-07T03:17:44;13.90;99.90
1594;DHT22;790;47.000;16.084;2023-05-07T03:20:14;13.90;99.90
1594;DHT22;790;47.000;16.084;2023-05-07T03:22:46;13.80;99.90
1594;DHT22;790;47.000;16.084;2023-05-07T03:25:13;13.80;99.90
1594;DHT22;790;47.000;16.084;2023-05-07T03:27:41;13.80;99.90
1594;DHT22;790;47.000;16.084;2023-05-07T03:30:11;13.80;99.90
1594;DHT22;790;47.000;16.084;2023-05-07T03:32:38;13.80;99.90
1594;DHT22;790;47.000;16.084;2023-05-07T03:35:06;13.80;99.90
1594;DHT22;790;47.000;16.084;2023-05-07T03:37:34;13.80;99.90
1594;DHT22;790;47.000;16.084;2023-05-07T03:40:07;13.80;99.90
1594;DHT22;790;47.000;16.084;2023-05-07T03:42:36;13.80;99.90
1594;DHT22;790;47.000;16.084;2023-05-07T03:45:04;13.90;99.90
1594;DHT22;790;47.000;16.084;2023-05-07T03:47:32;13.90;99.90
1594;DHT22;790;47.000;16.084;2023-05-07T03:50:01;14.00;99.90
1594;DHT22;790;47.000;16.084;2023-05-07T03:52:28;14.10;99.90
1594;DHT22;790;47.000;16.084;2023-05-07T03:54:56;14.10;99.90
1594;DHT22;790;47.000;16.084;2023-05-07T03:57:25;14.20;99.90
1594;DHT22;790;47.000;16.084;2023-05-07T03:59:53;14.20;99.90
1594;DHT22;790;47.000;16.084;2023-05-07T04:02:22;14.20;99.90
1594;DHT22;790;47.000;16.084;2023-05-07T04:05:08;14.20;99.90
1594;DHT22;790;47.000;16.084;2023-05-07T04:07:37;14.20;99.90
1594;DHT22;790;47.000;16.084;2023-05-07T04:10:12;14.20;99.90
1594;DHT22;790;47.000;16.084;2023-05-07T04:12:58;14.30;99.90
1594;DHT22;790;47.000;16.084;2023-05-07T04:15:33;14.30;99.90
1594;DHT22;790;47.000;16.084;2023-05-07T04:18:05;14.40;99.90
1594;DHT22;790;47.000;16.084;2023-05-07T04:20:59;14.40;99.90
1594;DHT22;790;47.000;16.084;2023-05-07T04:26:44;14.30;99.90
1594;DHT22;790;47.000;16.084;2023-05-07T04:29:31;14.30;99.90
1594;DHT22;790;47.000;16.084;2023-05-07T04:32:05;14.30;99.90
1594;DHT22;790;47.000;16.084;2023-05-07T04:35:15;14.30;99.90
1594;DHT22;790;47.000;16.084;2023-05-07T04:38:06;14.30;99.90
1594;DHT22;790;47.000;16.084;2023-05-07T04:40:56;14.20;99.90
1594;DHT22;790;47.000;16.084;2023-05-07T04:43:34;14.30;99.90
1594;DHT22;790;47.000;16.084;2023-05-07T04:46:18;14.40;99.90
1594;DHT22;790;47.000;16.084;2023-05-07T04:48:51;14.50;99.90
1594;DHT22;790;47.000;16.084;2023-05-07T04:51:39;14.50;99.90
1594;DHT22;790;47.000;16.084;2023-05-07T04:54:35;14.50;99.90
1594;DHT22;790;47.000;16.084;2023-05-07T04:57:28;14.60;99.90
1594;DHT22;790;47.000;16.084;2023-05-07T05:00:06;14.50;99.90
1594;DHT22;790;47.000;16.084;2023-05-07T05:03:01;14.60;99.90
1594;DHT22;790;47.000;16.084;2023-05-07T05:05:45;14.60;99.90
1594;DHT22;790;47.000;16.084;2023-05-07T05:08:39;14.60;99.90
1594;DHT22;790;47.000;16.084;2023-05-07T05:11:09;14.70;99.90
1594;DHT22;790;47.000;16.084;2023-05-07T05:13:47;14.70;99.90
1594;DHT22;790;47.000;16.084;2023-05-07T05:16:18;14.70;99.90
1594;DHT22;790;47.000;16.084;2023-05-07T05:18:55;14.80;99.90
1594;DHT22;790;47.000;16.084;2023-05-07T05:21:26;14.90;99.90
1594;DHT22;790;47.000;16.084;2023-05-07T05:24:10;14.90;99.90
1594;DHT22;790;47.000;16.084;2023-05-07T05:26:43;15.00;99.90
1594;DHT22;790;47.000;16.084;2023-05-07T05:29:25;14.90;99.90
1594;DHT22;790;47.000;16.084;2023-05-07T05:32:09;14.90;99.90
1594;DHT22;790;47.000;16.084;2023-05-07T05:34:45;14.90;99.90
1594;DHT22;790;47.000;16.084;2023-05-07T05:37:15;15.00;99.90
1594;DHT22;790;47.000;16.084;2023-05-07T05:39:51;15.00;99.90
1594;DHT22;790;47.000;16.084;2023-05-07T05:42:32;15.10;99.90
1594;DHT22;790;47.000;16.084;2023-05-07T05:45:01;15.20;99.90
1594;DHT22;790;47.000;16.084;2023-05-07T05:47:35;15.20;99.90
1594;DHT22;790;47.000;16.084;2023-05-07T05:50:19;14.90;99.90
1594;DHT22;790;47.000;16.084;2023-05-07T05:52:56;15.00;99.90
1594;DHT22;790;47.000;16.084;2023-05-07T05:55:27;15.00;99.90
1594;DHT22;790;47.000;16.084;2023-05-07T05:58:15;14.90;99.90
1594;DHT22;790;47.000;16.084;2023-05-07T06:00:45;14.90;99.90
1594;DHT22;790;47.000;16.084;2023-05-07T06:03:29;15.00;99.90
1594;DHT22;790;47.000;16.084;2023-05-07T06:06:13;15.00;99.90
1594;DHT22;790;47.000;16.084;2023-05-07T06:11:31;15.20;99.90
1594;DHT22;790;47.000;16.084;2023-05-07T06:14:09;15.20;99.90
1594;DHT22;790;47.000;16.084;2023-05-07T06:19:33;15.50;99.90
1594;DHT22;790;47.000;16.084;2023-05-07T06:22:14;15.50;99.90
1594;DHT22;790;47.000;16.084;2023-05-07T06:24:48;15.50;99.90
1594;DHT22;790;47.000;16.084;2023-05-07T06:27:35;15.50;99.90
1594;DHT22;790;47.000;16.084;2023-05-07T06:30:12;15.60;99.90
1594;DHT22;790;47.000;16.084;2023-05-07T06:35:48;15.70;99.90
1594;DHT22;790;47.000;16.084;2023-05-07T06:38:36;15.80;99.90
1594;DHT22;790;47.000;16.084;2023-05-07T06:41:33;16.00;99.90
1594;DHT22;790;47.000;16.084;2023-05-07T06:44:18;16.00;99.90
1594;DHT22;790;47.000;16.084;2023-05-07T06:52:26;16.30;99.90
1594;DHT22;790;47.000;16.084;2023-05-07T06:55:06;16.30;99.90
1594;DHT22;790;47.000;16.084;2023-05-07T06:57:56;16.40;99.90
1594;DHT22;790;47.000;16.084;2023-05-07T07:00:44;16.40;99.90
1594;DHT22;790;47.000;16.084;2023-05-07T07:03:57;16.60;99.90
1594;DHT22;790;47.000;16.084;2023-05-07T07:06:26;16.80;99.90
1594;DHT22;790;47.000;16.084;2023-05-07T07:08:59;16.90;99.90
1594;DHT22;790;47.000;16.084;2023-05-07T07:11:42;16.90;99.90
1594;DHT22;790;47.000;16.084;2023-05-07T07:14:12;17.00;99.90
1594;DHT22;790;47.000;16.084;2023-05-07T07:16:45;17.10;99.90
1594;DHT22;790;47.000;16.084;2023-05-07T07:19:28;17.20;99.90
1594;DHT22;790;47.000;16.084;2023-05-07T07:21:55;17.40;99.90
1594;DHT22;790;47.000;16.084;2023-05-07T07:24:23;17.40;99.90
1594;DHT22;790;47.000;16.084;2023-05-07T07:26:52;17.50;99.90
1594;DHT22;790;47.000;16.084;2023-05-07T07:29:21;17.50;99.90
1594;DHT22;790;47.000;16.084;2023-05-07T07:31:49;17.60;99.90
1594;DHT22;790;47.000;16.084;2023-05-07T07:34:16;17.60;99.90
1594;DHT22;790;47.000;16.084;2023-05-07T07:36:43;17.70;99.90
1594;DHT22;790;47.000;16.084;2023-05-07T07:39:13;17.70;99.90
1594;DHT22;790;47.000;16.084;2023-05-07T07:41:46;17.70;99.90
1594;DHT22;790;47.000;16.084;2023-05-07T07:44:15;17.90;99.90
1594;DHT22;790;47.000;16.084;2023-05-07T07:46:43;18.00;99.90
1594;DHT22;790;47.000;16.084;2023-05-07T07:49:10;18.10;99.90
1594;DHT22;790;47.000;16.084;2023-05-07T07:51:39;18.20;99.90
1594;DHT22;790;47.000;16.084;2023-05-07T07:54:09;18.30;99.90
1594;DHT22;790;47.000;16.084;2023-05-07T07:56:36;18.20;99.90
1594;DHT22;790;47.000;16.084;2023-05-07T07:59:04;18.20;99.90
1594;DHT22;790;47.000;16.084;2023-05-07T08:01:34;18.40;99.90
1594;DHT22;790;47.000;16.084;2023-05-07T08:04:02;18.60;99.90
1594;DHT22;790;47.000;16.084;2023-05-07T08:06:32;18.60;99.90
1594;DHT22;790;47.000;16.084;2023-05-07T08:09:00;18.80;99.90
1594;DHT22;790;47.000;16.084;2023-05-07T08:11:28;19.00;99.90
1594;DHT22;790;47.000;16.084;2023-05-07T08:13:56;19.10;99.90
1594;DHT22;790;47.000;16.084;2023-05-07T08:16:23;19.20;99.90
1594;DHT22;790;47.000;16.084;2023-05-07T08:18:53;19.30;99.90
1594;DHT22;790;47.000;16.084;2023-05-07T08:21:20;19.50;99.90
1594;DHT22;790;47.000;16.084;2023-05-07T08:23:47;19.50;99.90
1594;DHT22;790;47.000;16.084;2023-05-07T08:26:15;19.60;99.90
1594;DHT22;790;47.000;16.084;2023-05-07T08:28:42;19.70;99.90
1594;DHT22;790;47.000;16.084;2023-05-07T08:31:09;19.80;99.90
1594;DHT22;790;47.000;16.084;2023-05-07T08:33:36;19.90;99.90
1594;DHT22;790;47.000;16.084;2023-05-07T08:36:06;20.10;99.90
1594;DHT22;790;47.000;16.084;2023-05-07T08:38:33;20.10;99.90
1594;DHT22;790;47.000;16.084;2023-05-07T08:41:00;20.30;99.90
1594;DHT22;790;47.000;16.084;2023-05-07T08:43:28;20.30;99.90
1594;DHT22;790;47.000;16.084;2023-05-07T08:45:55;20.50;99.90
1594;DHT22;790;47.000;16.084;2023-05-07T08:48:25;20.40;99.90
1594;DHT22;790;47.000;16.084;2023-05-07T08:50:54;20.50;99.90
1594;DHT22;790;47.000;16.084;2023-05-07T08:53:23;20.60;99.90
1594;DHT22;790;47.000;16.084;2023-05-07T08:55:56;20.60;99.90
1594;DHT22;790;47.000;16.084;2023-05-07T08:58:24;20.60;99.90
1594;DHT22;790;47.000;16.084;2023-05-07T09:00:53;20.40;99.90
1594;DHT22;790;47.000;16.084;2023-05-07T09:03:21;20.30;99.90
1594;DHT22;790;47.000;16.084;2023-05-07T09:05:48;20.40;99.90
1594;DHT22;790;47.000;16.084;2023-05-07T09:08:16;20.60;99.90
1594;DHT22;790;47.000;16.084;2023-05-07T09:10:45;20.80;99.90
1594;DHT22;790;47.000;16.084;2023-05-07T09:13:12;20.80;99.90
1594;DHT22;790;47.000;16.084;2023-05-07T09:15:40;20.90;99.90
1594;DHT22;790;47.000;16.084;2023-05-07T09:18:07;21.00;99.90
1594;DHT22;790;47.000;16.084;2023-05-07T09:20:36;21.30;99.90
1594;DHT22;790;47.000;16.084;2023-05-07T09:23:04;21.40;99.90
1594;DHT22;790;47.000;16.084;2023-05-07T09:25:34;21.40;99.90
1594;DHT22;790;47.000;16.084;2023-05-07T09:28:05;21.40;99.90
1594;DHT22;790;47.000;16.084;2023-05-07T09:30:34;21.50;99.90
1594;DHT22;790;47.000;16.084;2023-05-07T09:33:02;21.60;99.90
1594;DHT22;790;47.000;16.084;2023-05-07T09:35:30;21.80;99.90
1594;DHT22;790;47.000;16.084;2023-05-07T09:37:59;21.90;99.90
1594;DHT22;790;47.000;16.084;2023-05-07T09:40:28;22.10;99.90
1594;DHT22;790;47.000;16.084;2023-05-07T09:42:56;22.20;99.90
1594;DHT22;790;47.000;16.084;2023-05-07T09:45:25;22.40;99.90
1594;DHT22;790;47.000;16.084;2023-05-07T09:47:55;22.30;99.90
1594;DHT22;790;47.000;16.084;2023-05-07T09:50:27;22.40;99.90
1594;DHT22;790;47.000;16.084;2023-05-07T09:52:54;22.40;99.90
1594;DHT22;790;47.000;16.084;2023-05-07T09:55:25;22.30;99.90
1594;DHT22;790;47.000;16.084;2023-05-07T09:57:53;22.20;99.90
1594;DHT22;790;47.000;16.084;2023-05-07T10:00:23;22.10;99.90
1594;DHT22;790;47.000;16.084;2023-05-07T10:02:52;22.10;99.90
1594;DHT22;790;47.000;16.084;2023-05-07T10:05:19;22.00;99.90
1594;DHT22;790;47.000;16.084;2023-05-07T10:07:47;22.00;99.90
1594;DHT22;790;47.000;16.084;2023-05-07T10:10:14;21.80;99.90
1594;DHT22;790;47.000;16.084;2023-05-07T10:12:42;21.70;99.90
1594;DHT22;790;47.000;16.084;2023-05-07T10:15:10;21.70;99.90
1594;DHT22;790;47.000;16.084;2023-05-07T10:17:43;21.80;99.90
1594;DHT22;790;47.000;16.084;2023-05-07T10:20:11;22.00;99.90
1594;DHT22;790;47.000;16.084;2023-05-07T10:22:41;22.20;99.90
1594;DHT22;790;47.000;16.084;2023-05-07T10:25:14;22.30;99.90
1594;DHT22;790;47.000;16.084;2023-05-07T10:27:44;22.30;99.90
1594;DHT22;790;47.000;16.084;2023-05-07T10:30:24;22.20;99.90
1594;DHT22;790;47.000;16.084;2023-05-07T10:32:56;22.20;99.90
1594;DHT22;790;47.000;16.084;2023-05-07T10:35:32;22.40;99.90
1594;DHT22;790;47.000;16.084;2023-05-07T10:38:03;22.60;99.90
1594;DHT22;790;47.000;16.084;2023-05-07T10:40:30;22.70;99.90
1594;DHT22;790;47.000;16.084;2023-05-07T10:42:59;22.80;99.90
1594;DHT22;790;47.000;16.084;2023-05-07T10:45:27;22.90;99.90
1594;DHT22;790;47.000;16.084;2023-05-07T10:48:23;22.90;99.90
1594;DHT22;790;47.000;16.084;2023-05-07T10:51:18;22.90;99.90
1594;DHT22;790;47.000;16.084;2023-05-07T10:54:27;22.90;99.90
1594;DHT22;790;47.000;16.084;2023-05-07T10:59:52;22.90;99.90
1594;DHT22;790;47.000;16.084;2023-05-07T11:05:49;23.10;99.90
1594;DHT22;790;47.000;16.084;2023-05-07T11:08:56;23.20;99.90
1594;DHT22;790;47.000;16.084;2023-05-07T11:11:45;23.40;99.90
1594;DHT22;790;47.000;16.084;2023-05-07T11:14:14;23.40;99.90
1594;DHT22;790;47.000;16.084;2023-05-07T11:16:43;23.40;99.90
1594;DHT22;790;47.000;16.084;2023-05-07T11:19:15;23.40;99.90
1594;DHT22;790;47.000;16.084;2023-05-07T11:21:46;23.20;99.90
1594;DHT22;790;47.000;16.084;2023-05-07T11:24:14;23.20;99.90
1594;DHT22;790;47.000;16.084;2023-05-07T11:26:47;23.10;99.90
1594;DHT22;790;47.000;16.084;2023-05-07T11:29:17;23.20;99.90
1594;DHT22;790;47.000;16.084;2023-05-07T11:31:49;23.40;99.90
1594;DHT22;790;47.000;16.084;2023-05-07T11:34:33;23.40;99.90
1594;DHT22;790;47.000;16.084;2023-05-07T11:37:46;23.10;99.90
1594;DHT22;790;47.000;16.084;2023-05-07T11:40:31;23.00;99.90
1594;DHT22;790;47.000;16.084;2023-05-07T11:43:35;22.80;99.90
1594;DHT22;790;47.000;16.084;2023-05-07T11:46:09;22.80;99.90
1594;DHT22;790;47.000;16.084;2023-05-07T11:48:43;22.90;99.90
1594;DHT22;790;47.000;16.084;2023-05-07T11:51:20;22.90;99.90
1594;DHT22;790;47.000;16.084;2023-05-07T11:54:07;23.00;99.90
1594;DHT22;790;47.000;16.084;2023-05-07T11:56:38;23.10;99.90
1594;DHT22;790;47.000;16.084;2023-05-07T11:59:19;23.20;99.90
1594;DHT22;790;47.000;16.084;2023-05-07T12:01:46;23.30;99.90
1594;DHT22;790;47.000;16.084;2023-05-07T12:04:16;23.40;99.90
1594;DHT22;790;47.000;16.084;2023-05-07T12:06:46;23.30;99.90
1594;DHT22;790;47.000;16.084;2023-05-07T12:09:18;23.40;99.90
1594;DHT22;790;47.000;16.084;2023-05-07T12:11:46;23.50;99.90
1594;DHT22;790;47.000;16.084;2023-05-07T12:14:14;23.60;99.90
1594;DHT22;790;47.000;16.084;2023-05-07T12:16:42;23.60;99.90
1594;DHT22;790;47.000;16.084;2023-05-07T12:19:14;23.60;99.90
1594;DHT22;790;47.000;16.084;2023-05-07T12:21:43;23.60;99.90
1594;DHT22;790;47.000;16.084;2023-05-07T12:24:43;23.40;99.90
1594;DHT22;790;47.000;16.084;2023-05-07T12:27:11;23.20;99.90
1594;DHT22;790;47.000;16.084;2023-05-07T12:29:38;23.10;99.90
1594;DHT22;790;47.000;16.084;2023-05-07T12:32:19;23.10;99.90
1594;DHT22;790;47.000;16.084;2023-05-07T12:34:59;23.10;99.90
1594;DHT22;790;47.000;16.084;2023-05-07T12:37:41;22.90;99.90
1594;DHT22;790;47.000;16.084;2023-05-07T12:40:12;22.80;99.90
1594;DHT22;790;47.000;16.084;2023-05-07T12:42:41;22.70;99.90
1594;DHT22;790;47.000;16.084;2023-05-07T12:45:22;22.60;99.90
1594;DHT22;790;47.000;16.084;2023-05-07T12:48:00;22.60;99.90
1594;DHT22;790;47.000;16.084;2023-05-07T12:50:32;22.50;99.90
1594;DHT22;790;47.000;16.084;2023-05-07T12:53:07;22.30;99.90
1594;DHT22;790;47.000;16.084;2023-05-07T12:58:56;22.40;99.90
1594;DHT22;790;47.000;16.084;2023-05-07T13:01:30;22.70;99.90
1594;DHT22;790;47.000;16.084;2023-05-07T13:04:00;22.80;99.90
1594;DHT22;790;47.000;16.084;2023-05-07T13:06:28;22.80;99.90
1594;DHT22;790;47.000;16.084;2023-05-07T13:08:56;22.70;99.90
1594;DHT22;790;47.000;16.084;2023-05-07T13:11:23;22.60;99.90
1594;DHT22;790;47.000;16.084;2023-05-07T13:13:52;22.50;99.90
1594;DHT22;790;47.000;16.084;2023-05-07T13:16:34;22.40;99.90
1594;DHT22;790;47.000;16.084;2023-05-07T13:19:02;22.50;99.90
1594;DHT22;790;47.000;16.084;2023-05-07T13:21:29;22.60;99.90
1594;DHT22;790;47.000;16.084;2023-05-07T13:23:58;22.80;99.90
1594;DHT22;790;47.000;16.084;2023-05-07T13:26:25;22.80;99.90
1594;DHT22;790;47.000;16.084;2023-05-07T13:28:55;22.90;99.90
1594;DHT22;790;47.000;16.084;2023-05-07T13:31:22;22.90;99.90
1594;DHT22;790;47.000;16.084;2023-05-07T13:33:50;22.80;99.90
1594;DHT22;790;47.000;16.084;2023-05-07T13:36:18;22.80;99.90
1594;DHT22;790;47.000;16.084;2023-05-07T13:38:45;22.80;99.90
1594;DHT22;790;47.000;16.084;2023-05-07T13:41:27;22.70;99.90
1594;DHT22;790;47.000;16.084;2023-05-07T13:44:12;22.50;99.90
1594;DHT22;790;47.000;16.084;2023-05-07T13:46:41;22.30;99.90
1594;DHT22;790;47.000;16.084;2023-05-07T13:49:12;22.10;99.90
1594;DHT22;790;47.000;16.084;2023-05-07T13:51:47;22.00;99.90
1594;DHT22;790;47.000;16.084;2023-05-07T13:54:15;21.70;99.90
1594;DHT22;790;47.000;16.084;2023-05-07T13:56:42;21.50;99.90
1594;DHT22;790;47.000;16.084;2023-05-07T13:59:24;21.40;99.90
1594;DHT22;790;47.000;16.084;2023-05-07T14:01:57;21.20;99.90
1594;DHT22;790;47.000;16.084;2023-05-07T14:04:25;21.10;99.90
1594;DHT22;790;47.000;16.084;2023-05-07T14:09:36;20.90;99.90
1594;DHT22;790;47.000;16.084;2023-05-07T14:12:04;20.80;99.90
1594;DHT22;790;47.000;16.084;2023-05-07T14:14:32;20.70;99.90
1594;DHT22;790;47.000;16.084;2023-05-07T14:17:03;20.80;99.90
1594;DHT22;790;47.000;16.084;2023-05-07T14:19:31;20.70;99.90
1594;DHT22;790;47.000;16.084;2023-05-07T14:21:59;20.50;99.90
1594;DHT22;790;47.000;16.084;2023-05-07T14:24:59;20.30;99.90
1594;DHT22;790;47.000;16.084;2023-05-07T14:27:30;20.20;99.90
1594;DHT22;790;47.000;16.084;2023-05-07T14:32:56;20.00;99.90
1594;DHT22;790;47.000;16.084;2023-05-07T14:35:24;20.10;99.90
1594;DHT22;790;47.000;16.084;2023-05-07T14:37:51;20.10;99.90
1594;DHT22;790;47.000;16.084;2023-05-07T14:40:19;20.00;99.90
1594;DHT22;790;47.000;16.084;2023-05-07T14:42:47;20.00;99.90
1594;DHT22;790;47.000;16.084;2023-05-07T14:45:38;19.80;99.90
1594;DHT22;790;47.000;16.084;2023-05-07T14:48:36;19.70;99.90
1594;DHT22;790;47.000;16.084;2023-05-07T14:51:22;19.70;99.90
1594;DHT22;790;47.000;16.084;2023-05-07T14:54:00;19.60;99.90
1594;DHT22;790;47.000;16.084;2023-05-07T14:56:41;19.50;99.90
1594;DHT22;790;47.000;16.084;2023-05-07T14:59:19;19.40;99.90
1594;DHT22;790;47.000;16.084;2023-05-07T15:02:12;19.20;99.90
1594;DHT22;790;47.000;16.084;2023-05-07T15:04:59;19.10;99.90
1594;DHT22;790;47.000;16.084;2023-05-07T15:07:35;19.10;99.90
1594;DHT22;790;47.000;16.084;2023-05-07T15:10:05;19.10;99.90
1594;DHT22;790;47.000;16.084;2023-05-07T15:12:35;19.10;99.90
1594;DHT22;790;47.000;16.084;2023-05-07T15:15:19;19.10;99.90
1594;DHT22;790;47.000;16.084;2023-05-07T15:17:52;19.10;99.90
1594;DHT22;790;47.000;16.084;2023-05-07T15:20:29;19.20;99.90
1594;DHT22;790;47.000;16.084;2023-05-07T15:23:30;19.20;99.90
1594;DHT22;790;47.000;16.084;2023-05-07T15:26:13;19.10;99.90
1594;DHT22;790;47.000;16.084;2023-05-07T15:28:49;19.10;99.90
1594;DHT22;790;47.000;16.084;2023-05-07T15:31:31;19.00;99.90
1594;DHT22;790;47.000;16.084;2023-05-07T15:37:01;18.90;99.90
1594;DHT22;790;47.000;16.084;2023-05-07T15:39:45;18.90;99.90
1594;DHT22;790;47.000;16.084;2023-05-07T15:42:32;18.90;99.90
1594;DHT22;790;47.000;16.084;2023-05-07T15:45:02;18.90;99.90
1594;DHT22;790;47.000;16.084;2023-05-07T15:47:42;19.00;99.90
1594;DHT22;790;47.000;16.084;2023-05-07T15:50:23;19.00;99.90
1594;DHT22;790;47.000;16.084;2023-05-07T15:52:58;19.00;99.90
1594;DHT22;790;47.000;16.084;2023-05-07T15:55:26;18.90;99.90
1594;DHT22;790;47.000;16.084;2023-05-07T15:58:01;18.90;99.90
1594;DHT22;790;47.000;16.084;2023-05-07T16:00:34;18.80;99.90
1594;DHT22;790;47.000;16.084;2023-05-07T16:03:06;18.70;99.90
1594;DHT22;790;47.000;16.084;2023-05-07T16:05:49;18.60;99.90
1594;DHT22;790;47.000;16.084;2023-05-07T16:08:34;18.60;99.90
1594;DHT22;790;47.000;16.084;2023-05-07T16:11:06;18.60;99.90
1594;DHT22;790;47.000;16.084;2023-05-07T16:13:42;18.60;99.90
1594;DHT22;790;47.000;16.084;2023-05-07T16:16:09;18.60;99.90
1594;DHT22;790;47.000;16.084;2023-05-07T16:18:39;18.70;99.90
1594;DHT22;790;47.000;16.084;2023-05-07T16:21:15;18.60;99.90
1594;DHT22;790;47.000;16.084;2023-05-07T16:24:00;18.70;99.90
1594;DHT22;790;47.000;16.084;2023-05-07T16:26:28;18.70;99.90
1594;DHT22;790;47.000;16.084;2023-05-07T16:28:57;18.70;99.90
1594;DHT22;790;47.000;16.084;2023-05-07T16:31:25;18.60;99.90
1594;DHT22;790;47.000;16.084;2023-05-07T16:33:52;18.50;99.90
1594;DHT22;790;47.000;16.084;2023-05-07T16:36:21;18.50;99.90
1594;DHT22;790;47.000;16.084;2023-05-07T16:38:48;18.50;99.90
1594;DHT22;790;47.000;16.084;2023-05-07T16:41:20;18.60;99.90
1594;DHT22;790;47.000;16.084;2023-05-07T16:43:49;18.60;99.90
1594;DHT22;790;47.000;16.084;2023-05-07T16:46:18;18.60;99.90
1594;DHT22;790;47.000;16.084;2023-05-07T16:48:46;18.50;99.90
1594;DHT22;790;47.000;16.084;2023-05-07T16:51:14;18.50;99.90
1594;DHT22;790;47.000;16.084;2023-05-07T16:53:41;18.60;99.90
1594;DHT22;790;47.000;16.084;2023-05-07T16:56:09;18.60;99.90
1594;DHT22;790;47.000;16.084;2023-05-07T16:58:42;18.60;99.90
1594;DHT22;790;47.000;16.084;2023-05-07T17:01:10;18.60;99.90
1594;DHT22;790;47.000;16.084;2023-05-07T17:03:39;18.60;99.90
1594;DHT22;790;47.000;16.084;2023-05-07T17:06:08;18.60;99.90
1594;DHT22;790;47.000;16.084;2023-05-07T17:08:39;18.60;99.90
1594;DHT22;790;47.000;16.084;2023-05-07T17:11:09;18.60;99.90
1594;DHT22;790;47.000;16.084;2023-05-07T17:13:38;18.70;99.90
1594;DHT22;790;47.000;16.084;2023-05-07T17:16:05;18.70;99.90